createdAt,value
2017-10-30T00:02:02.951Z,3.50
2017-10-30T00:04:31.017Z,3.73
2017-10-30T00:06:59.617Z,4.20
2017-10-30T00:09:27.724Z,4.20
2017-10-30T00:11:56.596Z,3.80
2017-10-30T00:14:24.668Z,3.57
2017-10-30T00:16:53.172Z,4.17
2017-10-30T00:19:21.271Z,3.73
2017-10-30T00:21:49.384Z,4.67
2017-10-30T00:24:17.680Z,5.10
2017-10-30T00:26:45.763Z,3.70
2017-10-30T00:29:13.868Z,3.00
2017-10-30T00:31:41.963Z,3.53
2017-10-30T00:34:10.087Z,4.40
2017-10-30T00:36:38.931Z,3.60
2017-10-30T00:39:07.004Z,4.57
2017-10-30T00:41:35.137Z,4.40
2017-10-30T00:44:03.216Z,4.27
2017-10-30T00:46:31.882Z,3.27
2017-10-30T00:49:00.136Z,3.07
2017-10-30T00:51:28.211Z,3.80
2017-10-30T00:53:57.072Z,4.30
2017-10-30T00:56:25.158Z,3.70
2017-10-30T00:58:53.268Z,3.43
2017-10-30T01:01:22.108Z,3.47
2017-10-30T01:03:50.252Z,3.80
2017-10-30T01:06:18.332Z,4.23
2017-10-30T01:08:46.405Z,4.00
2017-10-30T01:11:14.868Z,3.50
2017-10-30T01:13:42.968Z,4.07
2017-10-30T01:16:11.052Z,3.63
2017-10-30T01:18:39.161Z,4.23
2017-10-30T01:21:08.025Z,3.77
2017-10-30T01:23:36.095Z,3.47
2017-10-30T01:26:04.183Z,4.03
2017-10-30T01:28:32.299Z,3.83
2017-10-30T01:31:00.385Z,3.67
2017-10-30T01:33:28.467Z,4.40
2017-10-30T01:35:56.589Z,3.53
2017-10-30T01:38:25.415Z,3.70
2017-10-30T01:40:53.687Z,3.83
2017-10-30T01:43:22.708Z,4.60
2017-10-30T01:45:51.156Z,5.27
2017-10-30T01:48:19.247Z,3.70
2017-10-30T01:50:47.341Z,3.67
2017-10-30T01:53:15.417Z,3.83
2017-10-30T01:55:44.500Z,3.70
2017-10-30T01:58:12.568Z,3.90
2017-10-30T02:00:40.700Z,3.73
2017-10-30T02:03:08.773Z,3.57
2017-10-30T02:05:37.060Z,3.67
2017-10-30T02:08:05.596Z,3.77
2017-10-30T02:10:33.680Z,4.37
2017-10-30T02:13:02.555Z,3.40
2017-10-30T02:15:30.640Z,4.03
2017-10-30T02:17:59.478Z,3.80
2017-10-30T02:20:27.611Z,4.00
2017-10-30T02:22:56.463Z,3.53
2017-10-30T02:25:24.749Z,4.37
2017-10-30T02:27:52.855Z,3.50
2017-10-30T02:30:21.713Z,3.50
2017-10-30T02:32:49.785Z,4.00
2017-10-30T02:35:17.923Z,4.60
2017-10-30T02:37:45.997Z,3.70
2017-10-30T02:40:14.110Z,4.73
2017-10-30T02:42:42.224Z,3.50
2017-10-30T02:45:10.297Z,4.03
2017-10-30T02:47:38.379Z,4.50
2017-10-30T02:50:07.581Z,4.03
2017-10-30T02:52:35.655Z,4.00
2017-10-30T02:55:03.745Z,4.40
2017-10-30T02:57:31.844Z,4.37
2017-10-30T02:59:59.933Z,5.60
2017-10-30T03:02:27.999Z,4.60
2017-10-30T03:04:56.101Z,4.57
2017-10-30T03:07:24.188Z,5.63
2017-10-30T03:09:52.272Z,4.33
2017-10-30T03:12:21.659Z,5.83
2017-10-30T03:14:49.736Z,4.77
2017-10-30T03:17:17.821Z,4.23
2017-10-30T03:19:45.931Z,5.43
2017-10-30T03:22:14.196Z,4.37
2017-10-30T03:24:42.364Z,5.37
2017-10-30T03:27:10.432Z,4.63
2017-10-30T03:29:38.532Z,4.43
2017-10-30T03:32:07.384Z,5.80
2017-10-30T03:34:35.472Z,5.20
2017-10-30T03:37:03.546Z,4.90
2017-10-30T03:39:31.639Z,5.70
2017-10-30T03:41:59.717Z,4.60
2017-10-30T03:44:28.603Z,4.53
2017-10-30T03:46:56.709Z,4.77
2017-10-30T03:49:24.793Z,4.47
2017-10-30T03:51:53.113Z,4.93
2017-10-30T03:54:21.186Z,6.40
2017-10-30T03:56:50.038Z,4.70
2017-10-30T03:59:18.162Z,5.30
2017-10-30T04:01:47.032Z,4.50
2017-10-30T04:04:15.116Z,4.80
2017-10-30T04:06:43.972Z,5.03
2017-10-30T04:09:12.072Z,4.60
2017-10-30T04:11:40.142Z,6.10
2017-10-30T04:14:08.245Z,4.27
2017-10-30T04:16:36.319Z,4.70
2017-10-30T04:19:04.393Z,4.80
2017-10-30T04:21:32.489Z,4.40
2017-10-30T04:24:00.568Z,5.07
2017-10-30T04:26:29.460Z,5.40
2017-10-30T04:28:58.784Z,4.53
2017-10-30T04:31:26.865Z,5.60
2017-10-30T04:33:54.961Z,5.53
2017-10-30T04:36:23.042Z,5.40
2017-10-30T04:38:51.297Z,4.60
2017-10-30T04:41:19.397Z,5.60
2017-10-30T04:43:47.500Z,4.50
2017-10-30T04:46:15.574Z,4.87
2017-10-30T04:48:43.688Z,4.47
2017-10-30T04:51:12.528Z,4.60
2017-10-30T04:53:40.617Z,5.13
2017-10-30T04:56:08.733Z,4.80
2017-10-30T04:58:37.562Z,4.20
2017-10-30T05:01:05.658Z,4.30
2017-10-30T05:03:33.757Z,3.80
2017-10-30T05:06:02.623Z,5.67
2017-10-30T05:08:30.700Z,5.13
2017-10-30T05:10:58.773Z,4.60
2017-10-30T05:13:27.020Z,4.07
2017-10-30T05:15:55.092Z,4.60
2017-10-30T05:18:23.184Z,4.20
2017-10-30T05:20:51.264Z,3.80
2017-10-30T05:23:19.387Z,4.47
2017-10-30T05:25:47.475Z,4.37
2017-10-30T05:28:15.571Z,4.13
2017-10-30T05:30:43.642Z,3.80
2017-10-30T05:33:11.720Z,4.50
2017-10-30T05:35:39.845Z,4.40
2017-10-30T05:38:07.924Z,4.00
2017-10-30T05:40:36.489Z,4.13
2017-10-30T05:43:04.576Z,5.10
2017-10-30T05:45:32.651Z,5.03
2017-10-30T05:48:00.776Z,4.03
2017-10-30T05:50:29.643Z,4.00
2017-10-30T05:52:57.885Z,4.43
2017-10-30T05:55:25.965Z,4.30
2017-10-30T05:57:54.080Z,4.63
2017-10-30T06:00:22.152Z,3.90
2017-10-30T06:02:50.225Z,3.93
2017-10-30T06:05:18.392Z,4.40
2017-10-30T06:07:46.504Z,3.90
2017-10-30T06:10:14.596Z,5.07
2017-10-30T06:12:42.702Z,4.10
2017-10-30T06:15:10.796Z,4.80
2017-10-30T06:17:40.655Z,4.63
2017-10-30T06:20:09.425Z,3.80
2017-10-30T06:22:37.532Z,3.47
2017-10-30T06:25:05.598Z,4.63
2017-10-30T06:27:33.680Z,3.93
2017-10-30T06:30:01.755Z,4.87
2017-10-30T06:32:30.487Z,3.47
2017-10-30T06:34:58.613Z,3.50
2017-10-30T06:37:26.700Z,3.00
2017-10-30T06:39:54.791Z,3.77
2017-10-30T06:42:23.640Z,3.57
2017-10-30T06:44:51.741Z,3.20
2017-10-30T06:47:19.833Z,3.53
2017-10-30T06:49:47.928Z,4.40
2017-10-30T06:52:16.033Z,2.73
2017-10-30T06:54:44.152Z,3.90
2017-10-30T06:57:12.292Z,3.50
2017-10-30T06:59:40.388Z,3.57
2017-10-30T07:02:21.003Z,3.57
2017-10-30T07:04:49.104Z,3.50
2017-10-30T07:07:17.184Z,3.63
2017-10-30T07:09:45.502Z,3.63
2017-10-30T07:12:13.629Z,3.57
2017-10-30T07:14:41.757Z,3.70
2017-10-30T07:17:09.823Z,3.13
2017-10-30T07:19:37.948Z,3.53
2017-10-30T07:22:06.256Z,3.53
2017-10-30T07:24:35.117Z,3.10
2017-10-30T07:27:03.211Z,4.50
2017-10-30T07:29:32.106Z,3.67
2017-10-30T07:32:00.949Z,4.30
2017-10-30T07:34:29.828Z,3.40
2017-10-30T07:36:58.092Z,4.50
2017-10-30T07:39:26.164Z,4.23
2017-10-30T07:41:54.260Z,4.03
2017-10-30T07:44:22.370Z,3.73
2017-10-30T07:46:51.245Z,4.80
2017-10-30T07:49:19.316Z,5.13
2017-10-30T07:51:47.411Z,4.03
2017-10-30T07:54:15.495Z,4.40
2017-10-30T07:56:43.622Z,5.07
2017-10-30T07:59:11.717Z,3.97
2017-10-30T08:01:40.204Z,5.17
2017-10-30T08:04:09.209Z,3.70
2017-10-30T08:06:38.067Z,3.80
2017-10-30T08:14:50.955Z,5.13
2017-10-30T08:17:27.475Z,5.20
2017-10-30T08:34:39.557Z,4.00
2017-10-30T08:49:00.952Z,6.13
2017-10-30T08:51:31.161Z,6.03
2017-10-30T09:11:31.005Z,5.90
2017-10-30T09:50:30.236Z,3.63
2017-10-30T09:53:01.501Z,3.90
2017-10-30T09:55:40.829Z,3.80
2017-10-30T09:58:13.878Z,4.10
2017-10-30T10:00:43.065Z,2.80
2017-10-30T10:03:13.387Z,4.43
2017-10-30T10:05:44.482Z,3.43
2017-10-30T10:08:15.561Z,3.30
2017-10-30T10:10:43.708Z,3.10
2017-10-30T10:13:13.731Z,2.80
2017-10-30T10:18:44.971Z,4.17
2017-10-30T10:21:15.854Z,3.57
2017-10-30T10:23:47.478Z,4.07
2017-10-30T10:26:16.461Z,3.33
2017-10-30T10:28:47.462Z,3.40
2017-10-30T10:34:00.604Z,4.37
2017-10-30T10:36:29.513Z,3.70
2017-10-30T10:41:31.743Z,3.83
2017-10-30T10:46:34.195Z,2.80
2017-10-30T10:49:10.456Z,2.83
2017-10-30T10:54:25.987Z,2.90
2017-10-30T11:16:23.248Z,3.07
2017-10-30T11:26:18.784Z,4.53
2017-10-30T11:47:26.962Z,3.20
2017-10-30T11:50:00.769Z,2.87
2017-10-30T11:52:33.933Z,3.70
2017-10-30T11:57:52.606Z,3.30
2017-10-30T12:03:04.957Z,2.80
2017-10-30T12:24:36.536Z,3.07
2017-10-30T12:27:08.291Z,3.83
2017-10-30T12:29:36.442Z,3.27
2017-10-30T12:42:41.898Z,3.80
2017-10-30T12:50:58.882Z,3.80
2017-10-30T12:56:28.971Z,3.17
2017-10-30T12:58:57.179Z,3.23
2017-10-30T13:01:25.324Z,3.57
2017-10-30T13:06:27.717Z,3.13
2017-10-30T13:17:50.395Z,3.40
2017-10-30T13:20:25.498Z,3.53
2017-10-30T13:22:55.492Z,4.33
2017-10-30T13:39:56.315Z,3.07
2017-10-30T13:45:20.193Z,3.27
2017-10-30T13:50:50.653Z,2.50
2017-10-30T13:53:18.901Z,3.03
2017-10-30T13:55:49.042Z,2.80
2017-10-30T13:58:18.239Z,2.93
2017-10-30T14:00:47.478Z,2.70
2017-10-30T14:08:44.806Z,2.30
2017-10-30T14:13:49.378Z,2.30
2017-10-30T14:16:18.982Z,2.67
2017-10-30T14:18:47.161Z,2.97
2017-10-30T14:21:21.297Z,2.63
2017-10-30T14:23:50.669Z,2.23
2017-10-30T14:26:22.801Z,2.23
2017-10-30T14:28:52.577Z,3.03
2017-10-30T14:31:26.820Z,2.20
2017-10-30T14:36:45.401Z,2.30
2017-10-30T14:39:13.694Z,2.43
2017-10-30T14:44:20.186Z,2.30
2017-10-30T14:47:01.431Z,2.30
2017-10-30T14:49:30.390Z,2.23
2017-10-30T14:52:04.466Z,3.03
2017-10-30T14:57:06.601Z,2.60
2017-10-30T14:59:36.633Z,2.40
2017-10-30T15:02:09.613Z,2.37
2017-10-30T15:04:40.762Z,2.73
2017-10-30T15:07:11.965Z,2.83
2017-10-30T15:09:41.854Z,3.07
2017-10-30T15:12:19.422Z,2.30
2017-10-30T15:23:33.382Z,2.60
2017-10-30T15:26:04.645Z,1.83
2017-10-30T15:28:32.775Z,1.83
2017-10-30T15:31:06.825Z,2.27
2017-10-30T15:33:36.825Z,2.27
2017-10-30T15:36:06.394Z,2.37
2017-10-30T15:41:25.926Z,2.60
2017-10-30T15:43:58.437Z,2.30
2017-10-30T15:46:30.302Z,3.77
2017-10-30T15:49:01.570Z,1.90
2017-10-30T15:51:30.965Z,2.10
2017-10-30T15:54:00.484Z,2.70
2017-10-30T15:56:28.641Z,2.77
2017-10-30T16:02:08.170Z,2.20
2017-10-30T16:04:36.743Z,2.30
2017-10-30T16:07:05.738Z,1.87
2017-10-30T16:09:34.893Z,2.97
2017-10-30T16:12:03.009Z,5.33
2017-10-30T16:14:31.144Z,4.03
2017-10-30T16:16:59.240Z,7.67
2017-10-30T16:19:27.344Z,10.40
2017-10-30T16:21:55.473Z,14.93
2017-10-30T16:24:24.485Z,11.80
2017-10-30T16:26:52.631Z,2.30
2017-10-30T16:29:20.724Z,2.80
2017-10-30T16:31:48.905Z,2.30
2017-10-30T16:34:17.061Z,4.30
2017-10-30T16:36:45.180Z,5.40
2017-10-30T16:39:15.669Z,15.83
2017-10-30T16:41:44.821Z,10.90
2017-10-30T16:44:13.771Z,6.27
2017-10-30T16:46:42.679Z,2.00
2017-10-30T16:49:12.520Z,2.20
2017-10-30T16:51:40.631Z,2.53
2017-10-30T16:54:09.748Z,3.30
2017-10-30T16:56:38.678Z,3.30
2017-10-30T16:59:07.698Z,6.97
2017-10-30T17:01:35.794Z,9.00
2017-10-30T17:04:07.711Z,26.93
2017-10-30T17:06:35.872Z,9.00
2017-10-30T17:09:04.824Z,2.73
2017-10-30T17:11:32.972Z,10.80
2017-10-30T17:14:01.199Z,30.57
2017-10-30T17:16:29.352Z,44.73
2017-10-30T17:18:57.484Z,20.03
2017-10-30T17:21:25.588Z,31.57
2017-10-30T17:23:53.857Z,17.53
2017-10-30T17:26:22.056Z,18.63
2017-10-30T17:28:50.186Z,143.23
2017-10-30T17:31:19.428Z,80.67
2017-10-30T17:33:48.463Z,21.00
2017-10-30T17:36:17.259Z,50.30
2017-10-30T17:38:45.371Z,52.13
2017-10-30T17:41:13.596Z,48.37
2017-10-30T17:43:41.710Z,29.67
2017-10-30T17:46:11.193Z,71.57
2017-10-30T17:48:42.440Z,46.70
2017-10-30T17:51:10.552Z,82.30
2017-10-30T17:53:38.677Z,29.40
2017-10-30T17:56:06.775Z,10.53
2017-10-30T17:58:34.913Z,9.10
2017-10-30T18:01:03.113Z,5.90
2017-10-30T18:03:31.212Z,2.30
2017-10-30T18:05:59.319Z,3.40
2017-10-30T18:08:27.480Z,2.73
2017-10-30T18:10:57.332Z,2.90
2017-10-30T18:13:25.435Z,2.43
2017-10-30T18:15:54.004Z,3.80
2017-10-30T18:18:22.085Z,4.67
2017-10-30T18:20:51.272Z,4.03
2017-10-30T18:23:19.449Z,3.50
2017-10-30T18:25:47.597Z,2.50
2017-10-30T18:28:15.724Z,2.60
2017-10-30T18:30:43.816Z,2.77
2017-10-30T18:33:14.694Z,4.43
2017-10-30T18:35:44.303Z,3.23
2017-10-30T18:38:12.412Z,3.17
2017-10-30T18:40:41.382Z,3.30
2017-10-30T18:43:09.474Z,3.13
2017-10-30T18:45:37.585Z,2.67
2017-10-30T18:48:10.471Z,2.80
2017-10-30T18:50:39.477Z,3.10
2017-10-30T18:53:08.560Z,3.70
2017-10-30T18:55:37.424Z,3.37
2017-10-30T18:58:05.541Z,3.90
2017-10-30T19:00:34.415Z,3.03
2017-10-30T19:03:03.467Z,3.97
2017-10-30T19:05:32.509Z,3.40
2017-10-30T19:08:00.592Z,3.50
2017-10-30T19:10:28.761Z,3.87
2017-10-30T19:12:56.873Z,3.70
2017-10-30T19:15:25.902Z,3.70
2017-10-30T19:17:53.979Z,4.13
2017-10-30T19:20:22.171Z,4.30
2017-10-30T19:22:50.397Z,3.50
2017-10-30T19:25:20.819Z,3.40
2017-10-30T19:27:48.992Z,3.93
2017-10-30T19:30:17.124Z,4.63
2017-10-30T19:32:45.228Z,4.73
2017-10-30T19:35:14.375Z,3.77
2017-10-30T19:37:43.260Z,4.20
2017-10-30T19:40:14.195Z,4.67
2017-10-30T19:42:43.037Z,4.70
2017-10-30T19:45:12.951Z,4.03
2017-10-30T19:47:41.109Z,5.20
2017-10-30T19:50:10.277Z,5.37
2017-10-30T19:52:39.241Z,5.33
2017-10-30T19:55:08.240Z,6.17
2017-10-30T19:57:37.149Z,6.43
2017-10-30T20:00:06.995Z,5.10
2017-10-30T20:02:35.461Z,4.30
2017-10-30T20:05:09.152Z,3.70
2017-10-30T20:07:43.441Z,3.90
2017-10-30T20:10:18.835Z,4.53
2017-10-30T20:12:46.974Z,5.07
2017-10-30T20:15:15.053Z,5.63
2017-10-30T20:17:44.781Z,5.27
2017-10-30T20:20:13.675Z,4.67
2017-10-30T20:22:41.841Z,5.73
2017-10-30T20:25:09.985Z,4.10
2017-10-30T20:27:38.865Z,5.00
2017-10-30T20:30:07.031Z,4.80
2017-10-30T20:32:35.152Z,5.00
2017-10-30T20:35:04.023Z,5.23
2017-10-30T20:37:33.035Z,8.87
2017-10-30T20:40:01.905Z,12.93
2017-10-30T20:42:30.827Z,5.63
2017-10-30T20:44:59.933Z,4.83
2017-10-30T20:47:29.220Z,9.37
2017-10-30T20:49:57.328Z,16.13
2017-10-30T20:52:25.436Z,10.53
2017-10-30T20:54:53.565Z,5.33
2017-10-30T20:57:22.781Z,4.90
2017-10-30T20:59:51.837Z,3.47
2017-10-30T21:02:19.927Z,4.47
2017-10-30T21:04:48.064Z,3.80
2017-10-30T21:07:16.948Z,3.73
2017-10-30T21:09:47.256Z,4.10
2017-10-30T21:12:16.170Z,4.40
2017-10-30T21:14:44.294Z,5.50
2017-10-30T21:17:12.426Z,4.70
2017-10-30T21:19:40.576Z,4.30
2017-10-30T21:22:08.656Z,5.50
2017-10-30T21:24:36.801Z,3.37
2017-10-30T21:27:04.976Z,3.60
2017-10-30T21:29:33.096Z,3.67
2017-10-30T21:32:01.303Z,3.10
2017-10-30T21:34:29.460Z,4.20
2017-10-30T21:36:57.561Z,2.80
2017-10-30T21:39:25.643Z,4.77
2017-10-30T21:41:53.768Z,3.80
2017-10-30T21:44:22.689Z,3.80
2017-10-30T21:46:50.773Z,3.17
2017-10-30T21:49:19.816Z,3.67
2017-10-30T21:51:48.695Z,3.53
2017-10-30T21:54:18.273Z,3.73
2017-10-30T21:56:46.377Z,3.40
2017-10-30T21:59:15.268Z,3.70
2017-10-30T22:01:44.156Z,3.60
2017-10-30T22:04:12.251Z,3.10
2017-10-30T22:06:40.344Z,3.83
2017-10-30T22:09:08.491Z,3.13
2017-10-30T22:11:36.593Z,2.60
2017-10-30T22:14:04.731Z,2.87
2017-10-30T22:16:33.661Z,2.50
2017-10-30T22:19:01.788Z,3.20
2017-10-30T22:21:29.915Z,2.90
2017-10-30T22:23:58.036Z,3.00
2017-10-30T22:26:26.937Z,3.90
2017-10-30T22:28:55.029Z,3.10
2017-10-30T22:31:24.255Z,3.50
2017-10-30T22:33:56.214Z,3.53
2017-10-30T22:36:24.387Z,3.83
2017-10-30T22:38:52.521Z,4.00
2017-10-30T22:41:20.699Z,4.77
2017-10-30T22:43:51.981Z,3.87
2017-10-30T22:46:21.837Z,3.60
2017-10-30T22:48:50.388Z,3.83
2017-10-30T22:51:18.700Z,4.23
2017-10-30T22:53:47.804Z,3.80
2017-10-30T22:56:16.005Z,4.67
2017-10-30T22:58:45.413Z,4.07
2017-10-30T23:01:13.588Z,4.37
2017-10-30T23:03:41.717Z,4.70
2017-10-30T23:06:10.792Z,4.20
2017-10-30T23:08:39.642Z,4.90
2017-10-30T23:11:07.823Z,5.30
2017-10-30T23:15:59.705Z,5.60
2017-10-30T23:18:28.851Z,4.03
2017-10-30T23:20:56.974Z,4.80
2017-10-30T23:23:25.100Z,4.80
2017-10-30T23:25:53.240Z,3.80
2017-10-30T23:28:21.357Z,3.27
2017-10-30T23:30:51.404Z,3.00
2017-10-30T23:33:19.793Z,3.07
2017-10-30T23:35:47.888Z,3.33
2017-10-30T23:38:16.797Z,3.00
2017-10-30T23:40:44.929Z,3.30
2017-10-30T23:43:13.062Z,3.53
2017-10-30T23:45:41.168Z,3.90
2017-10-30T23:48:10.030Z,3.43
2017-10-30T23:50:40.373Z,3.90
2017-10-30T23:53:09.235Z,3.17
2017-10-30T23:55:38.294Z,3.80
2017-10-30T23:58:07.165Z,4.30
